Time;durP1;ratioP1;P1;durP2;ratioP2;P2;SDS_P1;SDS_P2;PMS_P1;PMS_P2;Temp;Humidity;BMP_temperature;BMP_pressure;BME280_temperature;BME280_humidity;BME280_pressure;Samples;Min_cycle;Max_cycle;Signal;HPM_P1;HPM_P2
2023/02/18 00:00:19;;;;;;;1.80;0.98;;;;;;;10.45;89.30;98150.56;5057978;28;20063;-61
2023/02/18 00:02:46;;;;;;;1.85;0.98;;;;;;;10.39;89.82;98152.28;5056339;28;20048;-61
2023/02/18 00:05:14;;;;;;;1.42;0.90;;;;;;;10.40;89.95;98148.53;5060583;28;20063;-61
2023/02/18 00:07:41;;;;;;;1.63;0.80;;;;;;;10.44;89.77;98160.59;5062086;28;20041;-61
2023/02/18 00:10:11;;;;;;;1.58;0.85;;;;;;;10.35;90.30;98143.81;5059630;28;20089;-61
2023/02/18 00:12:38;;;;;;;2.05;1.00;;;;;;;10.38;90.48;98150.63;5056459;28;20048;-61
2023/02/18 00:15:05;;;;;;;1.95;0.90;;;;;;;10.46;89.90;98172.00;5061901;28;20404;-61
2023/02/18 00:17:32;;;;;;;1.15;0.73;;;;;;;10.43;90.07;98169.72;5058813;28;20041;-61
2023/02/18 00:19:58;;;;;;;0.98;0.68;;;;;;;10.38;90.43;98156.06;5067830;28;20115;-61
2023/02/18 00:22:25;;;;;;;2.20;0.90;;;;;;;10.24;91.34;98161.66;5057194;28;20032;-61
2023/02/18 00:24:51;;;;;;;2.00;1.08;;;;;;;10.24;91.50;98160.81;5057153;28;20089;-61
2023/02/18 00:27:18;;;;;;;2.67;0.90;;;;;;;10.44;90.57;98166.00;5054415;28;20060;-61
2023/02/18 00:29:44;;;;;;;2.67;1.15;;;;;;;10.45;90.23;98180.34;5062778;28;20071;-61
2023/02/18 00:32:11;;;;;;;1.83;1.00;;;;;;;10.51;89.79;98166.72;5056561;28;20064;-61
2023/02/18 00:34:37;;;;;;;2.00;1.10;;;;;;;10.44;89.84;98170.56;5059863;28;20036;-61
2023/02/18 00:37:04;;;;;;;2.90;1.40;;;;;;;10.33;90.32;98155.94;5059462;28;20123;-61
2023/02/18 00:39:30;;;;;;;2.63;1.23;;;;;;;10.38;89.92;98161.47;5058755;28;20522;-61
2023/02/18 00:41:57;;;;;;;2.63;1.25;;;;;;;10.49;89.17;98155.31;5049490;28;20281;-61
2023/02/18 00:44:24;;;;;;;2.83;1.33;;;;;;;10.52;88.97;98168.38;5058922;28;20185;-61
2023/02/18 00:46:52;;;;;;;3.20;1.33;;;;;;;10.50;88.92;98158.81;5058867;28;20044;-61
2023/02/18 00:49:18;;;;;;;2.53;1.33;;;;;;;10.50;88.84;98161.53;5057490;28;20040;-61
2023/02/18 00:51:45;;;;;;;2.78;1.40;;;;;;;10.53;88.63;98161.06;5053143;28;20518;-61
2023/02/18 00:54:11;;;;;;;2.05;1.23;;;;;;;10.56;88.47;98160.59;5063492;28;20076;-61
2023/02/18 00:56:37;;;;;;;3.53;1.17;;;;;;;10.59;88.28;98162.84;5071550;28;20093;-61
2023/02/18 00:59:04;;;;;;;2.38;1.52;;;;;;;10.65;87.95;98161.09;5072672;28;20124;-61
2023/02/18 01:01:30;;;;;;;3.38;1.45;;;;;;;10.61;88.04;98157.22;5063024;28;20136;-61
2023/02/18 01:03:57;;;;;;;2.85;1.30;;;;;;;10.51;88.49;98165.91;5068697;28;20127;-61
2023/02/18 01:06:24;;;;;;;2.90;1.60;;;;;;;10.56;88.18;98151.66;5064987;28;20106;-61
2023/02/18 01:08:50;;;;;;;2.50;1.38;;;;;;;10.54;88.30;98160.84;5065038;28;20055;-61
2023/02/18 01:11:17;;;;;;;4.03;1.65;;;;;;;10.61;87.96;98154.50;5064605;28;20475;-61
2023/02/18 01:13:44;;;;;;;3.65;1.70;;;;;;;10.53;88.40;98161.91;5070513;28;20028;-61
2023/02/18 01:16:10;;;;;;;3.47;1.55;;;;;;;10.44;88.87;98154.31;5066250;28;20652;-61
2023/02/18 01:18:38;;;;;;;3.05;1.50;;;;;;;10.51;88.52;98153.16;5059931;28;20045;-61
2023/02/18 01:21:07;;;;;;;3.33;1.73;;;;;;;10.52;88.48;98146.72;5060115;28;20560;-61
2023/02/18 01:23:36;;;;;;;2.90;1.60;;;;;;;10.49;88.62;98133.63;5073024;28;20047;-61
2023/02/18 01:26:04;;;;;;;4.38;1.90;;;;;;;10.48;88.41;98132.00;5058257;28;20340;-60
2023/02/18 01:28:30;;;;;;;3.35;1.80;;;;;;;10.40;88.88;98143.94;5072171;28;20139;-61
2023/02/18 01:30:57;;;;;;;3.38;1.80;;;;;;;10.48;88.32;98131.16;5061110;28;20098;-61
2023/02/18 01:33:24;;;;;;;3.25;1.55;;;;;;;10.36;89.12;98136.53;5073893;28;20078;-61
2023/02/18 01:35:51;;;;;;;2.97;1.52;;;;;;;10.31;89.35;98131.78;5066502;28;20033;-62
2023/02/18 01:38:18;;;;;;;2.70;1.50;;;;;;;10.30;89.40;98127.44;5066724;28;20121;-61
2023/02/18 01:40:51;;;;;;;4.70;1.80;;;;;;;10.30;89.56;98126.59;5068167;28;20048;-61
2023/02/18 01:43:20;;;;;;;2.72;1.48;;;;;;;10.34;89.00;98144.88;5054060;28;20028;-62
2023/02/18 01:46:05;;;;;;;2.80;1.30;;;;;;;10.38;88.73;98134.41;5072029;28;20650;-61
2023/02/18 01:48:52;;;;;;;3.08;1.50;;;;;;;10.41;88.36;98128.53;5067424;28;20411;-61
2023/02/18 01:51:28;;;;;;;2.30;1.42;;;;;;;10.33;88.63;98123.44;5065296;28;20410;-62
2023/02/18 01:54:01;;;;;;;2.92;1.40;;;;;;;10.39;88.41;98119.78;5072474;28;20119;-61
2023/02/18 01:56:33;;;;;;;3.85;1.50;;;;;;;10.43;88.02;98131.00;5066284;28;20467;-61
2023/02/18 01:59:06;;;;;;;4.95;2.53;;;;;;;10.46;87.88;98120.56;5057573;28;20044;-62
2023/02/18 02:01:33;;;;;;;3.40;1.23;;;;;;;10.44;87.84;98114.56;5054594;28;20144;-62
2023/02/18 02:04:00;;;;;;;4.40;1.75;;;;;;;10.51;87.36;98115.25;5064740;28;20522;-61
2023/02/18 02:06:27;;;;;;;4.43;1.83;;;;;;;10.41;87.77;98117.69;5067385;28;20450;-61
2023/02/18 02:08:58;;;;;;;2.22;1.35;;;;;;;10.38;87.90;98110.88;5056014;28;20076;-61
2023/02/18 02:11:40;;;;;;;3.07;1.77;;;;;;;10.33;88.54;98118.03;5061546;28;20049;-62
2023/02/18 02:14:12;;;;;;;2.92;1.80;;;;;;;10.30;88.51;98113.91;5054039;28;20040;-61
2023/02/18 02:16:51;;;;;;;3.10;1.80;;;;;;;10.36;88.25;98107.56;5065039;28;20033;-61
2023/02/18 02:19:20;;;;;;;3.97;2.00;;;;;;;10.35;88.44;98124.03;5068789;28;20128;-61
2023/02/18 02:22:08;;;;;;;3.58;2.30;;;;;;;10.34;88.44;98115.09;5061730;28;20032;-61
2023/02/18 02:24:41;;;;;;;5.05;2.22;;;;;;;10.26;88.70;98112.72;5057194;28;20128;-61
2023/02/18 02:27:20;;;;;;;4.30;2.10;;;;;;;10.41;87.94;98106.88;5061242;28;20464;-61
2023/02/18 02:30:08;;;;;;;4.75;2.10;;;;;;;10.30;88.09;98107.66;5070469;28;20120;-61
2023/02/18 02:32:58;;;;;;;3.80;2.40;;;;;;;10.35;87.38;98107.78;5070254;28;20040;-61
2023/02/18 02:35:35;;;;;;;4.25;2.13;;;;;;;10.47;86.20;98111.38;5069006;28;20028;-61
2023/02/18 02:38:18;;;;;;;5.03;2.35;;;;;;;10.49;85.98;98098.44;5065532;28;20044;-61
2023/02/18 02:40:50;;;;;;;3.88;2.33;;;;;;;10.38;86.32;98097.34;5070125;28;20049;-61
2023/02/18 02:43:39;;;;;;;4.28;1.90;;;;;;;10.37;86.00;98092.97;5073331;28;20426;-62
2023/02/18 02:46:10;;;;;;;3.35;2.10;;;;;;;10.50;84.93;98089.25;5062665;28;20510;-61
2023/02/18 02:49:03;;;;;;;3.15;1.80;;;;;;;10.40;85.07;98087.09;5069074;28;20040;-61
2023/02/18 02:51:36;;;;;;;3.72;2.05;;;;;;;10.50;84.56;98094.66;5062062;28;20121;-61
2023/02/18 02:54:09;;;;;;;3.42;1.85;;;;;;;10.39;84.75;98095.44;5073896;28;20036;-62
2023/02/18 02:56:35;;;;;;;3.17;1.70;;;;;;;10.44;84.80;98086.63;5069013;28;20055;-61
2023/02/18 02:59:07;;;;;;;3.60;1.75;;;;;;;10.47;84.54;98084.28;5065845;28;20044;-61
2023/02/18 03:02:06;;;;;;;3.90;1.90;;;;;;;10.44;84.49;98087.50;5068559;28;20055;-62
2023/02/18 03:04:45;;;;;;;3.45;1.70;;;;;;;10.45;84.59;98101.84;5066776;28;20120;-62
2023/02/18 03:07:24;;;;;;;3.22;1.80;;;;;;;10.44;84.63;98087.50;5069525;28;20048;-61
2023/02/18 03:10:13;;;;;;;3.58;2.00;;;;;;;10.47;84.59;98080.78;5068981;28;20147;-62
2023/02/18 03:12:53;;;;;;;3.15;1.48;;;;;;;10.45;84.41;98078.31;5065489;28;20032;-62
2023/02/18 03:15:39;;;;;;;2.93;1.90;;;;;;;10.45;84.60;98061.22;5065671;28;20020;-62
2023/02/18 03:18:29;;;;;;;4.45;1.95;;;;;;;10.43;84.60;98058.72;5065314;28;20036;-62
2023/02/18 03:21:43;;;;;;;3.90;1.70;;;;;;;10.44;84.82;98057.72;5055011;28;20044;-62
2023/02/18 03:24:22;;;;;;;2.92;1.63;;;;;;;10.43;85.01;98061.41;5063641;28;20044;-62
2023/02/18 03:27:01;;;;;;;3.15;1.83;;;;;;;10.41;85.86;98060.84;5063096;28;20076;-61
2023/02/18 03:29:28;;;;;;;4.47;2.13;;;;;;;10.39;86.40;98055.66;5075214;28;20028;-61
2023/02/18 03:32:01;;;;;;;4.25;1.92;;;;;;;10.39;86.89;98061.06;5065197;28;20048;-61
2023/02/18 03:34:31;;;;;;;3.83;1.85;;;;;;;10.33;86.98;98050.34;5071592;28;20048;-61
2023/02/18 03:37:00;;;;;;;3.42;1.77;;;;;;;10.39;86.73;98042.13;5054674;28;20411;-61
2023/02/18 03:39:29;;;;;;;4.22;2.05;;;;;;;10.38;86.49;98042.34;5070083;28;20040;-62
2023/02/18 03:41:56;;;;;;;3.78;2.17;;;;;;;10.34;86.82;98049.28;5059512;28;20045;-62
2023/02/18 03:44:24;;;;;;;5.15;2.47;;;;;;;10.37;86.33;98051.53;5066713;28;20036;-62
2023/02/18 03:46:51;;;;;;;4.53;2.00;;;;;;;10.38;86.30;98043.19;5056556;28;20519;-62
2023/02/18 03:49:18;;;;;;;5.15;2.38;;;;;;;10.35;86.47;98051.78;5070977;28;20032;-62
2023/02/18 03:51:46;;;;;;;3.65;2.13;;;;;;;10.47;85.92;98059.94;5060275;28;20103;-62
2023/02/18 03:54:13;;;;;;;5.75;2.33;;;;;;;10.46;85.53;98058.28;5075066;28;20056;-61
2023/02/18 03:56:41;;;;;;;2.60;1.55;;;;;;;10.47;85.25;98051.81;5062892;28;20090;-62
2023/02/18 03:59:09;;;;;;;3.30;1.65;;;;;;;10.40;85.80;98056.50;5067023;28;20579;-62
2023/02/18 04:01:35;;;;;;;3.35;1.60;;;;;;;10.50;84.85;98053.22;5068082;28;20640;-61
2023/02/18 04:04:02;;;;;;;3.92;1.80;;;;;;;10.59;84.65;98053.69;5067225;28;20053;-62
2023/02/18 04:06:28;;;;;;;3.55;1.58;;;;;;;10.38;85.36;98040.47;5066398;28;20416;-62
2023/02/18 04:08:55;;;;;;;4.00;1.80;;;;;;;10.33;85.69;98043.06;5062954;28;20503;-62
2023/02/18 04:11:22;;;;;;;3.95;1.90;;;;;;;10.37;84.58;98046.13;5072700;28;20051;-62
2023/02/18 04:13:48;;;;;;;4.10;1.95;;;;;;;10.44;84.55;98046.00;5063215;28;20044;-62
2023/02/18 04:16:15;;;;;;;3.42;1.73;;;;;;;10.54;83.91;98041.69;5039871;28;20051;-62
2023/02/18 04:18:42;;;;;;;3.38;1.75;;;;;;;10.56;83.68;98046.03;5029659;28;20071;-62
2023/02/18 04:21:09;;;;;;;2.63;1.55;;;;;;;10.58;82.80;98033.09;5068597;28;20255;-62
2023/02/18 04:23:36;;;;;;;3.17;1.40;;;;;;;10.62;82.34;98028.88;5065211;28;20116;-62
2023/02/18 04:26:03;;;;;;;4.05;1.80;;;;;;;10.61;81.81;98028.03;5072060;28;20028;-62
2023/02/18 04:28:29;;;;;;;3.75;1.70;;;;;;;10.57;82.01;98034.19;5071909;28;20287;-62
2023/02/18 04:30:56;;;;;;;4.28;1.90;;;;;;;10.57;81.94;98040.41;5072913;28;20036;-62
2023/02/18 04:33:22;;;;;;;5.53;1.73;;;;;;;10.42;82.10;98027.28;5072716;28;20047;-62
2023/02/18 04:35:49;;;;;;;3.72;1.70;;;;;;;10.45;81.75;98029.56;5079168;28;20071;-62
2023/02/18 04:38:15;;;;;;;3.80;1.75;;;;;;;10.46;81.21;98033.13;5070630;28;20076;-61
2023/02/18 04:40:42;;;;;;;3.38;1.70;;;;;;;10.57;80.68;98040.41;5072095;28;20041;-62
2023/02/18 04:43:08;;;;;;;2.55;1.58;;;;;;;10.47;80.93;98037.47;5065759;28;20052;-61
2023/02/18 04:45:35;;;;;;;3.05;1.55;;;;;;;10.46;81.17;98038.53;5072469;28;20851;-62
2023/02/18 04:48:01;;;;;;;2.80;1.50;;;;;;;10.30;81.61;98030.00;5057414;28;20068;-62
2023/02/18 04:50:28;;;;;;;4.00;1.80;;;;;;;10.42;81.30;98035.41;5056730;28;20037;-62
2023/02/18 04:52:54;;;;;;;5.50;1.90;;;;;;;10.34;81.37;98028.47;5056552;28;20542;-62
2023/02/18 04:55:21;;;;;;;3.30;1.67;;;;;;;10.36;81.37;98034.47;5059399;28;20039;-62
2023/02/18 04:57:47;;;;;;;3.65;1.77;;;;;;;10.41;81.04;98025.66;5065475;28;20062;-62
2023/02/18 05:00:16;;;;;;;3.30;1.73;;;;;;;10.36;80.96;98022.81;5063692;28;20116;-62
2023/02/18 05:02:43;;;;;;;3.00;1.70;;;;;;;10.44;80.71;98022.50;5065835;28;20500;-62
2023/02/18 05:05:11;;;;;;;3.33;1.48;;;;;;;10.27;81.47;98035.88;5066311;28;20130;-62
2023/02/18 05:07:37;;;;;;;3.40;1.48;;;;;;;10.35;81.06;98032.81;5067556;28;20038;-62
2023/02/18 05:10:05;;;;;;;2.92;1.63;;;;;;;10.35;80.53;98026.56;5066459;28;20044;-62
2023/02/18 05:12:31;;;;;;;3.05;1.50;;;;;;;10.25;81.32;98033.41;5059620;28;20459;-62
2023/02/18 05:14:58;;;;;;;4.10;1.90;;;;;;;10.38;80.75;98026.94;5070529;28;20041;-62
2023/02/18 05:17:24;;;;;;;3.47;1.55;;;;;;;10.43;80.38;98025.41;5071585;28;20040;-62
2023/02/18 05:19:51;;;;;;;3.35;1.40;;;;;;;10.49;80.47;98027.22;5059811;28;20044;-62
2023/02/18 05:22:17;;;;;;;3.15;1.50;;;;;;;10.50;80.24;98034.25;5065646;28;20503;-62
2023/02/18 05:24:44;;;;;;;4.97;1.77;;;;;;;10.43;80.37;98028.94;5064545;28;20558;-62
2023/02/18 05:27:10;;;;;;;3.75;1.90;;;;;;;10.36;80.55;98023.63;5061576;28;20033;-62
2023/02/18 05:29:37;;;;;;;2.72;1.50;;;;;;;10.30;81.02;98021.03;5061624;28;20451;-62
2023/02/18 05:32:03;;;;;;;3.47;1.52;;;;;;;10.17;81.79;98017.50;5068932;28;20041;-62
2023/02/18 05:34:30;;;;;;;3.10;1.48;;;;;;;10.20;81.53;98019.75;5057458;28;20048;-62
2023/02/18 05:36:56;;;;;;;3.30;1.75;;;;;;;10.26;81.08;98018.00;5061500;28;20064;-62
2023/02/18 05:39:23;;;;;;;2.92;1.40;;;;;;;10.40;80.17;98014.00;5069284;28;20443;-62
2023/02/18 05:41:49;;;;;;;3.78;1.63;;;;;;;10.52;79.20;98007.78;5073083;28;20040;-62
2023/02/18 05:44:32;;;;;;;3.47;1.77;;;;;;;10.53;78.92;98012.97;5069790;28;20079;-61
2023/02/18 05:47:01;;;;;;;3.55;1.77;;;;;;;10.61;78.28;98008.28;5069730;28;20063;-62
2023/02/18 05:49:29;;;;;;;3.33;1.60;;;;;;;10.57;78.63;98012.50;5070972;28;20036;-62
2023/02/18 05:51:56;;;;;;;2.80;1.42;;;;;;;10.42;79.51;98016.47;5073466;28;20251;-62
2023/02/18 05:54:24;;;;;;;4.38;2.00;;;;;;;10.41;79.38;98015.66;5075173;28;20457;-62
2023/02/18 05:56:50;;;;;;;3.60;1.70;;;;;;;10.43;79.62;98012.69;5074923;28;20073;-62
2023/02/18 05:59:17;;;;;;;3.60;1.70;;;;;;;10.53;79.10;98012.97;5072575;28;20155;-62
2023/02/18 06:01:44;;;;;;;3.40;1.80;;;;;;;10.59;78.89;98007.66;5074358;28;20070;-62
2023/02/18 06:04:11;;;;;;;3.25;1.95;;;;;;;10.59;78.80;98021.22;5071565;28;20685;-62
2023/02/18 06:06:37;;;;;;;3.75;1.80;;;;;;;10.64;78.45;98024.03;5077630;28;20120;-62
2023/02/18 06:09:05;;;;;;;3.15;1.45;;;;;;;10.60;78.77;98015.56;5078284;28;20045;-62
2023/02/18 06:11:32;;;;;;;4.15;1.73;;;;;;;10.68;78.48;98005.44;5067877;28;20502;-62
2023/02/18 06:13:58;;;;;;;3.83;1.77;;;;;;;10.61;78.90;98003.66;5068144;28;20070;-62
2023/02/18 06:16:25;;;;;;;3.70;1.65;;;;;;;10.60;78.91;97996.59;5063391;28;20032;-61
2023/02/18 06:18:51;;;;;;;3.10;1.83;;;;;;;10.51;79.28;97998.84;5062404;28;20087;-56
2023/02/18 06:21:18;;;;;;;4.25;1.73;;;;;;;10.50;79.60;97997.19;5062323;28;20036;-56
2023/02/18 06:23:45;;;;;;;3.83;1.52;;;;;;;10.43;80.10;97991.03;5066079;28;20032;-59
2023/02/18 06:26:12;;;;;;;4.43;1.88;;;;;;;10.36;80.33;97988.44;5071820;28;20049;-58
2023/02/18 06:28:39;;;;;;;3.88;1.45;;;;;;;10.39;80.11;97987.97;5063340;28;20743;-57
2023/02/18 06:31:05;;;;;;;2.80;1.25;;;;;;;10.49;79.52;98000.13;5067526;28;20033;-58
2023/02/18 06:33:32;;;;;;;2.47;1.40;;;;;;;10.66;78.66;98005.66;5069874;28;20039;-58
2023/02/18 06:36:02;;;;;;;3.25;1.52;;;;;;;10.70;78.35;98012.25;5071716;28;20479;-57
2023/02/18 06:38:28;;;;;;;3.75;1.60;;;;;;;10.76;78.15;98011.31;5073372;28;20047;-57
2023/02/18 06:40:54;;;;;;;3.90;1.58;;;;;;;10.73;78.15;98014.47;5072444;28;20066;-57
2023/02/18 06:43:21;;;;;;;3.28;1.50;;;;;;;10.84;77.70;98018.22;5066705;28;20060;-58
2023/02/18 06:45:48;;;;;;;3.60;1.65;;;;;;;10.75;78.02;98006.94;5071054;28;20486;-57
2023/02/18 06:48:15;;;;;;;2.80;1.25;;;;;;;10.76;78.32;98015.91;5065560;28;20045;-57
2023/02/18 06:50:42;;;;;;;3.28;1.77;;;;;;;10.76;78.47;98015.91;5064193;28;20504;-58
2023/02/18 06:53:09;;;;;;;2.65;1.65;;;;;;;10.87;77.49;97998.78;5064798;28;20323;-58
2023/02/18 06:55:36;;;;;;;3.00;1.50;;;;;;;10.86;77.47;98001.75;5071724;28;20469;-56
2023/02/18 06:58:03;;;;;;;2.75;1.40;;;;;;;10.79;78.07;98004.59;5066226;28;20135;-60
2023/02/18 07:00:30;;;;;;;2.78;1.40;;;;;;;10.74;78.43;98007.19;5065274;28;20044;-58
2023/02/18 07:02:57;;;;;;;3.90;1.73;;;;;;;10.72;78.58;98004.72;5065482;28;20123;-59
2023/02/18 07:05:23;;;;;;;2.70;1.40;;;;;;;10.80;78.04;98012.47;5071011;28;20048;-57
2023/02/18 07:07:50;;;;;;;4.43;1.73;;;;;;;10.83;78.00;98005.75;5072392;28;20132;-57
2023/02/18 07:10:16;;;;;;;5.03;1.73;;;;;;;10.78;77.89;98009.19;5071760;28;20043;-57
2023/02/18 07:12:43;;;;;;;3.05;1.63;;;;;;;10.96;76.87;98007.41;5064560;28;20055;-57
2023/02/18 07:15:09;;;;;;;2.78;1.63;;;;;;;10.92;77.32;98000.81;5063564;28;20337;-57
2023/02/18 07:17:36;;;;;;;3.75;1.92;;;;;;;10.88;77.63;97984.19;5066822;28;20044;-58
2023/02/18 07:20:04;;;;;;;3.53;1.90;;;;;;;10.88;77.43;97983.38;5073691;28;20090;-59
2023/02/18 07:22:31;;;;;;;5.05;1.98;;;;;;;10.90;77.26;97976.66;5066144;28;20036;-57
2023/02/18 07:24:57;;;;;;;3.90;1.73;;;;;;;10.99;76.45;97976.28;5069490;28;20469;-59
2023/02/18 07:27:24;;;;;;;2.95;1.83;;;;;;;11.01;76.83;97968.72;5067868;28;20056;-58
2023/02/18 07:29:51;;;;;;;4.05;1.98;;;;;;;11.03;76.65;97962.00;5070274;28;20409;-58
2023/02/18 07:32:18;;;;;;;3.78;1.88;;;;;;;10.98;77.07;97975.44;5064185;28;20804;-57
2023/02/18 07:34:45;;;;;;;3.22;1.80;;;;;;;11.13;76.54;97971.41;5065293;28;20080;-58
2023/02/18 07:37:11;;;;;;;4.93;1.83;;;;;;;11.09;76.45;97971.06;5067818;28;20037;-57
2023/02/18 07:39:42;;;;;;;3.83;2.00;;;;;;;11.14;76.35;97963.06;5069576;28;20075;-57
2023/02/18 07:42:13;;;;;;;3.45;1.70;;;;;;;11.15;76.33;97964.69;5068365;28;20389;-59
2023/02/18 07:44:40;;;;;;;3.15;1.70;;;;;;;11.16;76.44;97965.50;5064990;28;20051;-56
2023/02/18 07:47:07;;;;;;;4.78;2.03;;;;;;;11.14;76.80;97960.34;5067155;28;20316;-59
2023/02/18 07:49:34;;;;;;;5.35;1.90;;;;;;;11.19;76.07;97962.31;5065907;28;20461;-58
2023/02/18 07:52:01;;;;;;;3.10;1.50;;;;;;;11.29;75.87;97962.53;5070304;28;20072;-58
2023/02/18 07:54:29;;;;;;;3.53;1.65;;;;;;;11.24;75.94;97967.03;5068791;28;20116;-56
2023/02/18 07:56:56;;;;;;;3.63;1.70;;;;;;;11.36;75.45;97964.25;5058929;28;20074;-58
2023/02/18 07:59:22;;;;;;;4.18;1.70;;;;;;;11.39;75.37;97969.19;5070732;28;20040;-58
2023/02/18 08:01:49;;;;;;;6.97;2.08;;;;;;;11.34;75.34;97963.66;5063548;28;20438;-59
2023/02/18 08:04:16;;;;;;;3.70;1.98;;;;;;;11.29;75.27;97967.94;5061849;28;20048;-58
2023/02/18 08:06:45;;;;;;;3.05;1.50;;;;;;;11.39;75.00;97974.63;5066981;28;20068;-58
2023/02/18 08:09:13;;;;;;;3.50;1.73;;;;;;;11.50;74.84;97962.06;5068706;28;20091;-57
2023/02/18 08:11:39;;;;;;;5.13;2.00;;;;;;;11.31;75.35;97967.69;5069206;28;20043;-59
2023/02/18 08:14:06;;;;;;;4.03;1.90;;;;;;;11.38;74.89;97968.38;5066584;28;20492;-58
2023/02/18 08:16:33;;;;;;;4.07;1.92;;;;;;;11.48;74.33;97970.44;5073705;28;20097;-56
2023/02/18 08:19:02;;;;;;;4.90;2.63;;;;;;;11.41;74.55;97976.03;5071734;28;20448;-58
2023/02/18 08:21:29;;;;;;;3.45;1.77;;;;;;;11.46;73.59;97969.84;5077069;28;20482;-58
2023/02/18 08:23:57;;;;;;;3.22;1.73;;;;;;;11.47;74.36;97967.97;5066074;28;20039;-58
2023/02/18 08:26:24;;;;;;;2.78;1.25;;;;;;;11.46;73.99;97969.84;5062934;28;20043;-58
2023/02/18 08:28:51;;;;;;;3.05;1.50;;;;;;;11.52;73.92;97949.91;5067168;28;20469;-58
2023/02/18 08:31:27;;;;;;;3.72;1.40;;;;;;;11.52;74.02;97963.47;5072593;28;20059;-57
2023/02/18 08:33:55;;;;;;;4.40;1.70;;;;;;;11.47;74.48;97949.81;5066114;28;20075;-59
2023/02/18 08:36:22;;;;;;;4.07;1.92;;;;;;;11.49;74.20;97934.13;5065538;28;20040;-58
2023/02/18 08:38:48;;;;;;;4.03;1.98;;;;;;;11.63;73.75;97934.63;5063504;28;20121;-59
2023/02/18 08:41:17;;;;;;;4.30;2.17;;;;;;;11.70;73.21;97942.63;5070847;28;20045;-59
2023/02/18 08:43:44;;;;;;;7.30;3.80;;;;;;;11.69;73.68;97941.78;5062998;28;20047;-57
2023/02/18 08:46:11;;;;;;;6.80;3.10;;;;;;;11.74;73.63;97968.19;5070600;28;20076;-55
2023/02/18 08:48:43;;;;;;;4.47;2.20;;;;;;;11.79;73.22;97953.91;5064647;28;20094;-59
2023/02/18 08:51:14;;;;;;;3.25;1.70;;;;;;;11.85;73.78;97955.63;5062274;28;20495;-59
2023/02/18 08:53:41;;;;;;;;;;;;;;;11.79;74.28;97954.72;5057706;28;20041;-59
2023/02/18 08:56:09;;;;;;;3.28;1.60;;;;;;;11.71;74.29;97945.09;5059221;28;19921;-59
2023/02/18 08:58:36;;;;;;;3.15;1.50;;;;;;;11.80;74.39;97950.13;5058347;28;20131;-59
2023/02/18 09:01:05;;;;;;;7.60;3.75;;;;;;;11.80;74.83;97953.63;5068577;28;20128;-60
2023/02/18 09:03:33;;;;;;;14.40;7.85;;;;;;;11.82;75.32;97951.50;5051463;28;20043;-59
2023/02/18 09:06:00;;;;;;;5.72;2.40;;;;;;;11.56;75.96;97940.22;5060824;28;20047;-59
2023/02/18 09:08:27;;;;;;;4.97;1.73;;;;;;;11.71;75.50;97945.09;5060636;28;20124;-59
2023/02/18 09:10:58;;;;;;;4.93;1.80;;;;;;;11.76;75.44;97940.81;5048412;28;20153;-59
2023/02/18 09:13:26;;;;;;;2.58;1.20;;;;;;;11.64;75.43;97939.00;5060342;28;20121;-59
2023/02/18 09:16:02;;;;;;;2.45;1.00;;;;;;;11.83;74.64;97936.03;5071439;28;20054;-58
2023/02/18 09:18:29;;;;;;;2.67;1.02;;;;;;;12.02;74.51;97930.38;5066909;28;20132;-59
2023/02/18 09:20:57;;;;;;;4.65;1.20;;;;;;;11.84;74.23;97922.22;5050805;28;20122;-58
2023/02/18 09:23:25;;;;;;;3.65;1.45;;;;;;;11.91;74.80;97937.53;5049503;28;20047;-56
2023/02/18 09:25:52;;;;;;;4.57;1.58;;;;;;;11.98;74.20;97913.78;5066384;28;20059;-58
2023/02/18 09:28:19;;;;;;;4.63;2.15;;;;;;;11.83;74.85;97908.91;5057289;28;20816;-57
2023/02/18 09:30:45;;;;;;;7.40;3.22;;;;;;;11.88;74.75;97916.31;5061736;28;20392;-57
2023/02/18 09:33:13;;;;;;;7.75;3.67;;;;;;;11.80;74.98;97928.41;5055309;28;20120;-58
2023/02/18 09:35:41;;;;;;;4.93;2.35;;;;;;;11.85;74.26;97928.47;5068449;28;20310;-59
2023/02/18 09:38:10;;;;;;;7.30;2.55;;;;;;;11.97;73.42;97925.69;5053115;28;20050;-56
2023/02/18 09:40:41;;;;;;;3.72;1.48;;;;;;;12.05;72.60;97928.00;5066924;28;20037;-58
2023/02/18 09:43:21;;;;;;;2.38;1.02;;;;;;;12.14;71.97;97924.88;5062778;28;20040;-57
2023/02/18 09:45:50;;;;;;;2.42;1.27;;;;;;;12.29;71.54;97924.28;5053831;28;20518;-58
2023/02/18 09:48:16;;;;;;;2.40;0.90;;;;;;;12.36;70.46;97920.31;5064223;28;20044;-58
2023/02/18 09:50:50;;;;;;;2.85;1.35;;;;;;;12.38;70.64;97938.28;5063418;28;20130;-59
2023/02/18 09:53:17;;;;;;;3.63;1.40;;;;;;;12.28;70.72;97926.19;5055602;28;20829;-59
2023/02/18 09:55:45;;;;;;;8.98;4.18;;;;;;;12.28;71.97;97923.47;5058785;28;20060;-60
2023/02/18 09:58:18;;;;;;;6.28;1.60;;;;;;;12.26;70.68;97939.19;5057016;28;20049;-59
2023/02/18 10:01:04;;;;;;;2.63;1.08;;;;;;;12.19;70.92;97933.94;5058087;28;20438;-61
2023/02/18 10:03:31;;;;;;;2.50;1.25;;;;;;;12.11;70.97;97926.19;5059834;28;20043;-62
2023/02/18 10:06:05;;;;;;;3.17;1.50;;;;;;;12.05;71.31;97928.00;5065165;28;20051;-61
2023/02/18 10:08:39;;;;;;;6.50;1.40;;;;;;;12.05;71.52;97936.16;5056992;28;20040;-62
2023/02/18 10:11:15;;;;;;;2.67;1.17;;;;;;;11.98;71.70;97932.78;5058800;28;20044;-63
2023/02/18 10:13:43;;;;;;;2.17;0.80;;;;;;;12.12;70.88;97924.31;5061838;28;20153;-58
2023/02/18 10:16:15;;;;;;;1.67;0.93;;;;;;;12.28;70.42;97928.91;5067932;28;20101;-59
2023/02/18 10:18:48;;;;;;;3.85;1.35;;;;;;;12.41;70.16;97925.00;5062401;28;20454;-57
2023/02/18 10:21:18;;;;;;;3.22;1.50;;;;;;;12.36;69.95;97925.75;5054676;28;20044;-56
2023/02/18 10:24:00;;;;;;;1.73;0.90;;;;;;;12.41;70.06;97929.59;5054700;28;20450;-58
2023/02/18 10:26:30;;;;;;;3.92;1.10;;;;;;;12.46;69.62;97940.56;5067787;28;20048;-57
2023/02/18 10:28:57;;;;;;;2.70;0.95;;;;;;;12.38;69.61;97936.34;5059709;28;20294;-54
2023/02/18 10:31:33;;;;;;;4.43;1.02;;;;;;;12.47;69.62;97934.88;5060529;28;20153;-58
2023/02/18 10:34:40;;;;;;;2.97;0.93;;;;;;;12.54;69.15;97934.69;5068891;28;20055;-57
2023/02/18 10:37:22;;;;;;;2.47;1.10;;;;;;;12.58;69.57;97935.00;5046932;28;20156;-56
2023/02/18 10:39:51;;;;;;;3.33;0.98;;;;;;;12.61;69.85;97945.38;5056378;28;20040;-58
2023/02/18 10:42:46;;;;;;;2.00;0.80;;;;;;;12.51;69.35;97945.22;5059804;28;20585;-57
2023/02/18 10:45:37;;;;;;;2.78;0.90;;;;;;;12.51;69.13;97934.34;5059592;28;20053;-56
2023/02/18 10:48:03;;;;;;;2.00;0.90;;;;;;;12.65;69.43;97951.13;5056275;28;20143;-57
2023/02/18 10:50:38;;;;;;;2.42;0.85;;;;;;;12.70;69.00;97927.56;5063578;28;20597;-58
2023/02/18 10:53:32;;;;;;;2.05;0.70;;;;;;;12.72;69.12;97939.00;5059067;28;20847;-54
2023/02/18 10:55:59;;;;;;;3.03;1.27;;;;;;;12.52;68.49;97922.41;5060446;28;20407;-59
2023/02/18 10:58:41;;;;;;;4.30;1.00;;;;;;;12.45;68.74;97919.88;5063057;28;20033;-57
2023/02/18 11:01:20;;;;;;;;;;;;;;;12.49;67.75;97912.88;5058369;28;20064;-58
2023/02/18 11:03:49;;;;;;;2.47;0.80;;;;;;;12.58;68.74;97924.97;5055581;28;20398;-57
2023/02/18 11:06:36;;;;;;;4.47;0.93;;;;;;;12.59;68.38;97921.19;5057925;28;20043;-58
2023/02/18 11:09:04;;;;;;;1.92;0.95;;;;;;;12.67;67.81;97916.34;5062140;28;20040;-58
2023/02/18 11:11:35;;;;;;;1.95;0.75;;;;;;;12.74;67.23;97911.56;5034205;28;20044;-59
2023/02/18 11:14:05;;;;;;;1.90;1.00;;;;;;;12.78;67.21;97914.63;5053594;28;20501;-59
2023/02/18 11:16:41;;;;;;;4.30;1.08;;;;;;;12.66;67.10;97922.88;5058178;28;20048;-57
2023/02/18 11:19:34;;;;;;;2.75;1.10;;;;;;;12.61;67.48;97897.28;5057796;28;20558;-57
2023/02/18 11:22:22;;;;;;;2.45;1.05;;;;;;;12.53;67.78;97889.56;5062877;28;20143;-58
2023/02/18 11:24:58;;;;;;;3.00;1.10;;;;;;;12.54;67.73;97896.66;5062741;28;20040;-56
2023/02/18 11:27:43;;;;;;;2.42;1.10;;;;;;;12.54;67.48;97909.41;5065639;28;20044;-59
2023/02/18 11:30:36;;;;;;;2.83;1.30;;;;;;;12.58;67.80;97900.53;5056243;28;20114;-58
2023/02/18 11:33:11;;;;;;;4.00;1.48;;;;;;;12.74;67.33;97895.25;5055779;28;20482;-59
2023/02/18 11:35:49;;;;;;;4.20;1.25;;;;;;;12.63;67.84;97890.81;5053223;28;20131;-60
2023/02/18 11:38:36;;;;;;;2.53;1.13;;;;;;;12.58;67.77;97922.25;5054350;28;20673;-60
2023/02/18 11:41:09;;;;;;;3.20;1.38;;;;;;;12.50;68.34;97892.81;5056825;28;20119;-57
2023/02/18 11:43:41;;;;;;;1.75;0.90;;;;;;;12.58;67.63;97888.84;5056846;28;20423;-59
2023/02/18 11:46:19;;;;;;;1.88;1.00;;;;;;;12.63;67.92;97888.88;5058557;28;20076;-58
2023/02/18 11:48:46;;;;;;;3.35;0.98;;;;;;;12.74;67.38;97890.66;5052329;28;20119;-59